05NE weather

Mc Kay Airport
Spalding, Nebraska, United States

Public forecast

Using degrees Fahrenheit for public forecast. Weather courtesy of forecast.io.

Closest aviation weather report (METAR) to Mc Kay Airport

Closest report is Albion Municipal Airport, 11.4 nm (21.0 km) E. Retrieved 2019/10/17 17:35 UTC (0 seconds ago):

KBVN 171735Z AUTO 15006KT 10SM CLR 18/05 A2982 RMK AO2 T01750052

Closest aviation forecast (TAF) to Mc Kay Airport

Closest forecast is Karl Stefan Memorial Airport, 42.2 nm (78.1 km) ENE. Retrieved 2019/10/17 12:22 UTC (5 hours ago):

TAF KOFK 171120Z 1712/1812 13006KT P6SM SKC FM171800 15014KT P6SM SCT250 FM180200 16014KT P6SM SCT250 WS018/20050KT